createdAt,value
2019-04-10T00:00:47.783Z,100735.87
2019-04-10T00:01:27.822Z,100735.87
2019-04-10T00:02:04.946Z,100742.56
2019-04-10T00:02:41.762Z,100742.56
2019-04-10T00:03:27.826Z,100744.97
2019-04-10T00:03:56.681Z,100736.30
2019-04-10T00:04:32.771Z,100736.30
2019-04-10T00:05:09.704Z,100728.49
2019-04-10T00:05:45.799Z,100737.32
2019-04-10T00:06:21.926Z,100742.94
2019-04-10T00:07:10.531Z,100729.48
2019-04-10T00:07:35.822Z,100734.52
2019-04-10T00:08:12.324Z,100734.52
2019-04-10T00:08:48.527Z,100735.58
2019-04-10T00:09:25.272Z,100727.77
2019-04-10T00:10:01.512Z,100721.60
2019-04-10T00:10:38.330Z,100741.13
2019-04-10T00:11:14.506Z,100741.34
2019-04-10T00:11:51.384Z,100735.37
2019-04-10T00:12:27.587Z,100735.37
2019-04-10T00:13:04.480Z,100736.41
2019-04-10T00:13:40.710Z,100736.41
2019-04-10T00:14:16.930Z,100740.34
2019-04-10T00:14:53.014Z,100743.25
2019-04-10T00:15:29.135Z,100742.11
2019-04-10T00:16:05.623Z,100745.28
2019-04-10T00:16:42.496Z,100743.13
2019-04-10T00:17:18.675Z,100746.77
2019-04-10T00:17:55.671Z,100737.56
2019-04-10T00:18:31.931Z,100748.41
2019-04-10T00:19:08.732Z,100748.41
2019-04-10T00:19:45.582Z,100739.66
2019-04-10T00:20:22.536Z,100743.92
2019-04-10T00:20:58.697Z,100746.56
2019-04-10T00:21:35.529Z,100745.67
2019-04-10T00:22:11.794Z,100745.67
2019-04-10T00:22:48.654Z,100744.98
2019-04-10T00:23:24.853Z,100747.94
2019-04-10T00:24:01.883Z,100747.94
2019-04-10T00:24:37.957Z,100749.74
2019-04-10T00:25:14.918Z,100749.74
2019-04-10T00:25:51.018Z,100748.05
2019-04-10T00:26:27.880Z,100742.89
2019-04-10T00:27:04.128Z,100746.30
2019-04-10T00:27:40.954Z,100753.77
2019-04-10T00:28:17.196Z,100739.69
2019-04-10T00:28:53.878Z,100747.12
2019-04-10T00:29:30.019Z,100753.53
2019-04-10T00:30:06.946Z,100753.53
2019-04-10T00:30:43.127Z,100749.13
2019-04-10T00:31:19.956Z,100756.64
2019-04-10T00:31:56.447Z,100757.14
2019-04-10T00:32:32.534Z,100750.62
2019-04-10T00:33:08.523Z,100761.28
2019-04-10T00:33:45.095Z,100758.22
2019-04-10T00:34:21.278Z,100758.36
2019-04-10T00:34:58.162Z,100762.60
2019-04-10T00:35:35.165Z,100757.58
2019-04-10T00:36:12.128Z,100764.22
2019-04-10T00:36:49.063Z,100761.92
2019-04-10T00:37:28.457Z,100763.97
2019-04-10T00:38:02.977Z,100765.46
2019-04-10T00:38:39.914Z,100768.61
2019-04-10T00:39:16.046Z,100763.91
2019-04-10T00:39:52.998Z,100770.81
2019-04-10T00:40:29.157Z,100772.36
2019-04-10T00:41:06.021Z,100768.73
2019-04-10T00:41:42.086Z,100767.25
2019-04-10T00:42:18.978Z,100769.35
2019-04-10T00:42:57.037Z,100768.67
2019-04-10T00:43:32.940Z,100768.80
2019-04-10T00:44:09.185Z,100770.52
2019-04-10T00:44:45.936Z,100772.34
2019-04-10T00:45:22.375Z,100773.27
2019-04-10T00:45:58.571Z,100774.49
2019-04-10T00:46:34.810Z,100769.56
2019-04-10T00:47:10.934Z,100773.50
2019-04-10T00:47:47.747Z,100771.00
2019-04-10T00:48:24.025Z,100774.62
2019-04-10T00:49:00.627Z,100774.03
2019-04-10T00:49:37.723Z,100772.55
2019-04-10T00:50:14.622Z,100772.69
2019-04-10T00:50:50.913Z,100772.23
2019-04-10T00:51:27.591Z,100773.14
2019-04-10T00:52:03.916Z,100775.48
2019-04-10T00:52:40.677Z,100779.20
2019-04-10T00:53:17.010Z,100773.07
2019-04-10T00:53:53.881Z,100776.45
2019-04-10T00:54:30.936Z,100782.84
2019-04-10T00:55:07.780Z,100781.94
2019-04-10T00:55:44.095Z,100776.70
2019-04-10T00:56:20.774Z,100783.11
2019-04-10T00:56:56.986Z,100784.63
2019-04-10T00:57:33.835Z,100780.98
2019-04-10T00:58:10.071Z,100783.94
2019-04-10T00:58:46.070Z,100783.55
2019-04-10T00:59:22.069Z,100788.90
2019-04-10T00:59:58.860Z,100792.54
2019-04-10T01:00:36.796Z,100790.06
2019-04-10T01:01:13.797Z,100794.62
2019-04-10T01:01:50.026Z,100792.87
2019-04-10T01:02:26.888Z,100793.05
2019-04-10T01:03:03.118Z,100793.69
2019-04-10T01:03:47.285Z,100788.94
2019-04-10T01:04:23.024Z,100793.20
2019-04-10T01:04:59.041Z,100789.53
2019-04-10T01:05:35.397Z,100797.84
2019-04-10T01:06:11.609Z,100796.33
2019-04-10T01:06:48.400Z,100795.17
2019-04-10T01:07:35.762Z,100793.97
2019-04-10T01:08:02.410Z,100800.36
2019-04-10T01:08:38.418Z,100797.33
2019-04-10T01:09:15.389Z,100797.73
2019-04-10T01:09:51.673Z,100802.28
2019-04-10T01:10:28.483Z,100799.44
2019-04-10T01:11:04.677Z,100801.75
2019-04-10T01:11:41.423Z,100802.71
2019-04-10T01:12:17.510Z,100804.42
2019-04-10T01:12:54.442Z,100808.09
2019-04-10T01:13:30.485Z,100809.55
2019-04-10T01:14:07.489Z,100818.34
2019-04-10T01:14:43.554Z,100810.17
2019-04-10T01:15:20.440Z,100809.53
2019-04-10T01:15:56.473Z,100808.27
2019-04-10T01:16:33.496Z,100811.14
2019-04-10T01:17:09.594Z,100812.89
2019-04-10T01:17:46.600Z,100813.55
2019-04-10T01:18:23.384Z,100818.02
2019-04-10T01:18:59.586Z,100812.75
2019-04-10T01:19:36.341Z,100809.05
2019-04-10T01:20:13.334Z,100813.61
2019-04-10T01:20:50.158Z,100811.84
2019-04-10T01:21:26.564Z,100814.47
2019-04-10T01:22:03.122Z,100812.07
2019-04-10T01:22:39.657Z,100808.88
2019-04-10T01:23:16.076Z,100817.84
2019-04-10T01:23:53.250Z,100813.19
2019-04-10T01:24:29.989Z,100816.39
2019-04-10T01:25:06.244Z,100818.64
2019-04-10T01:25:42.936Z,100813.67
2019-04-10T01:26:19.186Z,100820.06
2019-04-10T01:26:55.928Z,100813.48
2019-04-10T01:27:32.172Z,100822.87
2019-04-10T01:28:08.763Z,100823.75
2019-04-10T01:28:45.183Z,100823.02
2019-04-10T01:29:21.707Z,100825.68
2019-04-10T01:29:58.048Z,100827.30
2019-04-10T01:30:34.813Z,100829.08
2019-04-10T01:31:11.021Z,100826.73
2019-04-10T01:31:47.682Z,100827.95
2019-04-10T01:32:23.847Z,100830.16
2019-04-10T01:33:00.671Z,100826.64
2019-04-10T01:33:36.912Z,100831.45
2019-04-10T01:34:13.577Z,100827.46
2019-04-10T01:34:49.746Z,100829.95
2019-04-10T01:35:26.619Z,100835.95
2019-04-10T01:36:02.861Z,100824.18
2019-04-10T01:36:39.480Z,100825.37
2019-04-10T01:37:16.572Z,100825.79
2019-04-10T01:37:57.699Z,100822.36
2019-04-10T01:38:30.660Z,100830.83
2019-04-10T01:39:10.457Z,100825.44
2019-04-10T01:39:46.568Z,100827.09
2019-04-10T01:40:23.366Z,100829.02
2019-04-10T01:40:59.537Z,100827.86
2019-04-10T01:41:36.289Z,100830.66
2019-04-10T01:42:12.485Z,100823.37
2019-04-10T01:43:02.400Z,100821.83
2019-04-10T01:43:26.643Z,100824.04
2019-04-10T01:44:03.477Z,100819.70
2019-04-10T01:44:40.589Z,100821.34
2019-04-10T01:45:17.492Z,100826.03
2019-04-10T01:45:54.008Z,100822.08
2019-04-10T01:46:33.258Z,100825.51
2019-04-10T01:47:07.896Z,100821.98
2019-04-10T01:47:43.997Z,100829.07
2019-04-10T01:48:19.991Z,100817.73
2019-04-10T01:48:56.035Z,100823.02
2019-04-10T01:49:32.254Z,100819.53
2019-04-10T01:50:08.470Z,100821.26
2019-04-10T01:50:44.637Z,100816.16
2019-04-10T01:51:21.385Z,100818.56
2019-04-10T01:51:57.795Z,100824.38
2019-04-10T01:52:33.932Z,100824.08
2019-04-10T01:53:09.955Z,100821.81
2019-04-10T01:53:46.180Z,100817.62
2019-04-10T01:54:22.743Z,100824.03
2019-04-10T01:54:59.754Z,100822.80
2019-04-10T01:55:35.963Z,100825.08
2019-04-10T01:56:23.994Z,100829.97
2019-04-10T01:56:50.152Z,100827.11
2019-04-10T01:57:26.332Z,100821.43
2019-04-10T01:58:03.619Z,100830.74
2019-04-10T01:58:41.440Z,100833.23
2019-04-10T01:59:19.135Z,100834.84
2019-04-10T01:59:56.233Z,100833.11
2019-04-10T02:00:32.845Z,100835.91
2019-04-10T02:01:16.559Z,100835.91
2019-04-10T02:02:00.897Z,100837.94
2019-04-10T02:02:43.118Z,100834.69
2019-04-10T02:03:20.164Z,100838.41
2019-04-10T02:03:56.354Z,100840.97
2019-04-10T02:04:33.108Z,100833.86
2019-04-10T02:05:09.269Z,100837.11
2019-04-10T02:05:45.464Z,100834.91
2019-04-10T02:06:21.628Z,100835.55
2019-04-10T02:06:58.009Z,100839.13
2019-04-10T02:07:34.185Z,100834.58
2019-04-10T02:08:13.523Z,100831.95
2019-04-10T02:08:48.256Z,100834.06
2019-04-10T02:09:25.541Z,100828.48
2019-04-10T02:10:01.869Z,100829.38
2019-04-10T02:10:38.465Z,100829.23
2019-04-10T02:11:15.419Z,100833.41
2019-04-10T02:11:52.360Z,100823.00
2019-04-10T02:12:28.618Z,100819.58
2019-04-10T02:13:05.382Z,100827.75
2019-04-10T02:13:41.638Z,100822.30
2019-04-10T02:14:18.376Z,100820.70
2019-04-10T02:14:54.522Z,100819.34
2019-04-10T02:15:30.830Z,100817.98
2019-04-10T02:16:08.212Z,100815.25
2019-04-10T02:16:45.256Z,100818.16
2019-04-10T02:17:22.253Z,100814.41
2019-04-10T02:17:59.139Z,100819.71
2019-04-10T02:18:35.820Z,100823.80
2019-04-10T02:19:12.243Z,100818.40
2019-04-10T02:19:48.460Z,100814.50
2019-04-10T02:20:25.033Z,100822.66
2019-04-10T02:21:01.258Z,100814.30
2019-04-10T02:21:38.024Z,100819.41
2019-04-10T02:22:14.201Z,100820.44
2019-04-10T02:22:50.249Z,100815.23
2019-04-10T02:23:26.434Z,100819.78
2019-04-10T02:24:02.951Z,100812.55
2019-04-10T02:24:39.076Z,100808.06
2019-04-10T02:25:15.776Z,100812.78
2019-04-10T02:25:52.804Z,100810.66
2019-04-10T02:26:29.714Z,100807.27
2019-04-10T02:27:05.881Z,100806.27
2019-04-10T02:27:42.663Z,100809.95
2019-04-10T02:28:18.836Z,100812.81
2019-04-10T02:28:55.513Z,100808.16
2019-04-10T02:29:31.786Z,100810.55
2019-04-10T02:30:10.346Z,100802.94
2019-04-10T02:30:47.871Z,100803.27
2019-04-10T02:31:26.329Z,100806.70
2019-04-10T02:32:04.023Z,100798.31
2019-04-10T02:32:43.604Z,100801.73
2019-04-10T02:33:18.435Z,100806.98
2019-04-10T02:33:57.064Z,100806.94
2019-04-10T02:34:32.713Z,100803.00
2019-04-10T02:35:13.186Z,100806.78
2019-04-10T02:35:47.862Z,100805.47
2019-04-10T02:36:25.638Z,100805.26
2019-04-10T02:37:02.667Z,100812.44
2019-04-10T02:37:39.588Z,100806.53
2019-04-10T02:38:33.855Z,100812.69
2019-04-10T02:39:05.652Z,100811.21
2019-04-10T02:39:37.906Z,100818.88
2019-04-10T02:40:10.266Z,100811.95
2019-04-10T02:40:47.689Z,100811.87
2019-04-10T02:41:23.993Z,100810.73
2019-04-10T02:42:00.573Z,100812.78
2019-04-10T02:42:37.292Z,100817.11
2019-04-10T02:43:16.101Z,100816.66
2019-04-10T02:43:53.758Z,100813.48
2019-04-10T02:44:30.616Z,100812.56
2019-04-10T02:45:08.525Z,100815.41
2019-04-10T02:45:44.850Z,100809.48
2019-04-10T02:46:22.050Z,100810.28
2019-04-10T02:46:59.711Z,100806.42
2019-04-10T02:47:37.041Z,100802.44
2019-04-10T02:48:13.011Z,100804.94
2019-04-10T02:48:50.104Z,100802.31
2019-04-10T02:49:27.851Z,100807.33
2019-04-10T02:50:06.190Z,100809.61
2019-04-10T02:50:42.993Z,100808.74
2019-04-10T02:51:20.008Z,100804.42
2019-04-10T02:51:57.001Z,100802.38
2019-04-10T02:52:34.914Z,100801.47
2019-04-10T02:53:11.075Z,100808.75
2019-04-10T02:53:48.104Z,100803.19
2019-04-10T02:54:25.084Z,100805.34
2019-04-10T02:55:01.997Z,100813.08
2019-04-10T02:55:38.840Z,100805.69
2019-04-10T02:56:15.943Z,100810.47
2019-04-10T02:56:52.967Z,100813.09
2019-04-10T02:57:29.420Z,100808.45
2019-04-10T02:58:06.000Z,100809.47
2019-04-10T02:58:42.712Z,100806.52
2019-04-10T02:59:18.817Z,100806.74
2019-04-10T02:59:55.761Z,100804.70
2019-04-10T03:00:33.693Z,100803.67
2019-04-10T03:01:11.165Z,100808.79
2019-04-10T03:01:49.603Z,100802.42
2019-04-10T03:02:26.602Z,100805.58
2019-04-10T03:03:03.556Z,100809.47
2019-04-10T03:03:40.327Z,100804.13
2019-04-10T03:04:16.990Z,100808.11
2019-04-10T03:04:55.138Z,100808.14
2019-04-10T03:05:32.640Z,100807.91
2019-04-10T03:06:11.355Z,100804.27
2019-04-10T03:06:47.367Z,100801.68
2019-04-10T03:07:23.970Z,100806.12
2019-04-10T03:08:01.098Z,100800.42
2019-04-10T03:08:57.673Z,100807.02
2019-04-10T03:09:32.538Z,100801.78
2019-04-10T03:10:07.277Z,100802.36
2019-04-10T03:10:40.521Z,100812.94
2019-04-10T03:11:12.193Z,100811.46
2019-04-10T03:11:47.528Z,100806.56
2019-04-10T03:12:23.857Z,100806.10
2019-04-10T03:13:00.655Z,100801.09
2019-04-10T03:13:38.154Z,100804.53
2019-04-10T03:14:14.889Z,100809.87
2019-04-10T03:14:52.201Z,100808.84
2019-04-10T03:15:29.742Z,100806.11
2019-04-10T03:16:07.488Z,100801.33
2019-04-10T03:16:43.828Z,100801.55
2019-04-10T03:17:19.908Z,100803.28
2019-04-10T03:17:56.599Z,100808.51
2019-04-10T03:18:32.870Z,100802.73
2019-04-10T03:19:09.488Z,100805.79
2019-04-10T03:19:45.635Z,100800.20
2019-04-10T03:20:22.451Z,100803.04
2019-04-10T03:20:58.539Z,100802.57
2019-04-10T03:21:35.414Z,100799.27
2019-04-10T03:22:12.449Z,100801.42
2019-04-10T03:22:49.274Z,100798.12
2019-04-10T03:23:25.370Z,100799.71
2019-04-10T03:24:02.125Z,100799.36
2019-04-10T03:24:38.379Z,100793.23
2019-04-10T03:25:14.948Z,100797.89
2019-04-10T03:25:51.135Z,100794.23
2019-04-10T03:26:27.886Z,100787.62
2019-04-10T03:27:04.211Z,100791.03
2019-04-10T03:27:40.702Z,100786.45
2019-04-10T03:28:16.799Z,100787.59
2019-04-10T03:28:53.519Z,100786.92
2019-04-10T03:29:29.943Z,100781.77
2019-04-10T03:30:07.593Z,100777.13
2019-04-10T03:30:46.492Z,100783.48
2019-04-10T03:31:24.714Z,100785.53
2019-04-10T03:32:21.125Z,100782.44
2019-04-10T03:33:12.394Z,100780.72
2019-04-10T03:34:16.081Z,100779.48
2019-04-10T03:34:54.829Z,100785.72
2019-04-10T03:35:47.105Z,100779.09
2019-04-10T03:36:24.367Z,100779.55
2019-04-10T03:37:01.803Z,100776.36
2019-04-10T03:37:40.293Z,100774.16
2019-04-10T03:38:18.175Z,100774.52
2019-04-10T03:39:00.221Z,100770.28
2019-04-10T03:39:35.621Z,100767.89
2019-04-10T03:40:11.502Z,100767.89
2019-04-10T03:40:48.122Z,100765.16
2019-04-10T03:41:24.813Z,100762.33
2019-04-10T03:42:01.419Z,100763.78
2019-04-10T03:42:39.114Z,100764.23
2019-04-10T03:43:15.868Z,100767.98
2019-04-10T03:43:52.445Z,100762.59
2019-04-10T03:44:28.918Z,100760.08
2019-04-10T03:45:05.589Z,100757.25
2019-04-10T03:45:42.052Z,100766.48
2019-04-10T03:46:19.493Z,100768.30
2019-04-10T03:46:58.695Z,100765.78
2019-04-10T03:47:35.546Z,100764.54
2019-04-10T03:48:12.123Z,100760.56
2019-04-10T03:48:49.433Z,100767.19
2019-04-10T03:49:26.141Z,100759.99
2019-04-10T03:50:02.817Z,100764.67
2019-04-10T03:50:39.635Z,100764.45
2019-04-10T03:51:16.566Z,100767.19
2019-04-10T03:51:53.241Z,100758.18
2019-04-10T03:52:29.816Z,100757.66
2019-04-10T03:53:07.526Z,100758.00
2019-04-10T03:53:44.537Z,100759.50
2019-04-10T03:54:21.177Z,100756.45
2019-04-10T03:54:58.611Z,100754.98
2019-04-10T03:55:35.329Z,100755.91
2019-04-10T03:56:12.035Z,100760.45
2019-04-10T03:56:49.912Z,100759.66
2019-04-10T03:57:27.117Z,100755.66
2019-04-10T03:58:03.615Z,100762.14
2019-04-10T03:58:40.212Z,100756.31
2019-04-10T03:59:16.978Z,100761.09
2019-04-10T03:59:53.844Z,100757.34
2019-04-10T04:00:30.616Z,100756.06
2019-04-10T04:01:07.125Z,100756.95
2019-04-10T04:01:43.513Z,100753.86
2019-04-10T04:02:20.030Z,100762.64
2019-04-10T04:02:56.335Z,100755.31
2019-04-10T04:03:32.972Z,100753.69
2019-04-10T04:04:09.550Z,100760.30
2019-04-10T04:04:46.109Z,100751.64
2019-04-10T04:05:22.526Z,100748.20
2019-04-10T04:06:00.098Z,100751.05
2019-04-10T04:06:36.791Z,100749.11
2019-04-10T04:07:13.447Z,100751.16
2019-04-10T04:07:50.702Z,100753.79
2019-04-10T04:08:27.791Z,100748.18
2019-04-10T04:09:10.871Z,100751.05
2019-04-10T04:09:44.182Z,100753.69
2019-04-10T04:10:20.659Z,100759.06
2019-04-10T04:10:57.322Z,100759.64
2019-04-10T04:11:33.959Z,100755.31
2019-04-10T04:12:10.574Z,100753.77
2019-04-10T04:12:46.932Z,100760.25
2019-04-10T04:13:23.691Z,100756.95
2019-04-10T04:14:00.206Z,100754.47
2019-04-10T04:14:36.722Z,100757.78
2019-04-10T04:15:13.586Z,100755.43
2019-04-10T04:15:50.584Z,100754.28
2019-04-10T04:16:26.915Z,100755.43
2019-04-10T04:17:04.017Z,100754.28
2019-04-10T04:17:40.185Z,100753.14
2019-04-10T04:18:17.198Z,100751.29
2019-04-10T04:18:53.435Z,100754.91
2019-04-10T04:19:30.971Z,100756.16
2019-04-10T04:20:07.556Z,100751.70
2019-04-10T04:20:43.709Z,100746.92
2019-04-10T04:21:19.949Z,100749.66
2019-04-10T04:21:56.373Z,100739.38
2019-04-10T04:22:32.719Z,100746.30
2019-04-10T04:23:09.580Z,100737.04
2019-04-10T04:23:46.634Z,100736.58
2019-04-10T04:24:26.332Z,100738.26
2019-04-10T04:25:02.706Z,100737.94
2019-04-10T04:25:38.784Z,100731.98
2019-04-10T04:26:14.897Z,100737.82
2019-04-10T04:26:50.955Z,100729.94
2019-04-10T04:27:27.388Z,100730.83
2019-04-10T04:28:04.620Z,100728.75
2019-04-10T04:28:41.853Z,100729.84
2019-04-10T04:29:18.495Z,100727.55
2019-04-10T04:29:55.337Z,100729.84
2019-04-10T04:30:32.084Z,100728.97
2019-04-10T04:31:09.418Z,100730.34
2019-04-10T04:31:45.777Z,100731.92
2019-04-10T04:32:21.895Z,100731.92
2019-04-10T04:32:58.070Z,100729.90
2019-04-10T04:33:34.163Z,100727.38
2019-04-10T04:34:10.281Z,100732.41
2019-04-10T04:34:47.377Z,100727.66
2019-04-10T04:35:23.571Z,100726.42
2019-04-10T04:35:59.903Z,100730.90
2019-04-10T04:36:37.124Z,100730.90
2019-04-10T04:37:13.425Z,100729.53
2019-04-10T04:37:50.598Z,100738.89
2019-04-10T04:38:27.704Z,100732.88
2019-04-10T04:39:18.097Z,100727.41
2019-04-10T04:39:43.356Z,100727.19
2019-04-10T04:40:19.720Z,100733.91
2019-04-10T04:40:56.084Z,100728.44
2019-04-10T04:41:32.191Z,100735.05
2019-04-10T04:42:09.245Z,100738.27
2019-04-10T04:42:45.541Z,100727.86
2019-04-10T04:43:22.246Z,100727.31
2019-04-10T04:43:59.326Z,100731.17
2019-04-10T04:44:35.501Z,100731.86
2019-04-10T04:45:12.684Z,100729.13
2019-04-10T04:45:48.917Z,100723.88
2019-04-10T04:46:26.021Z,100723.17
2019-04-10T04:47:03.304Z,100722.95
2019-04-10T04:47:40.000Z,100723.17
2019-04-10T04:48:17.013Z,100724.77
2019-04-10T04:48:52.986Z,100719.06
2019-04-10T04:49:29.040Z,100717.70
2019-04-10T04:50:05.587Z,100713.78
2019-04-10T04:50:42.048Z,100718.45
2019-04-10T04:51:21.953Z,100721.89
2019-04-10T04:51:58.264Z,100716.99
2019-04-10T04:52:34.957Z,100718.53
2019-04-10T04:53:11.314Z,100715.58
2019-04-10T04:53:48.313Z,100720.12
2019-04-10T04:54:25.525Z,100715.61
2019-04-10T04:55:02.051Z,100719.48
2019-04-10T04:55:38.153Z,100711.31
2019-04-10T04:56:14.440Z,100708.00
2019-04-10T04:56:50.587Z,100714.05
2019-04-10T04:57:26.869Z,100713.38
2019-04-10T04:58:04.087Z,100709.62
2019-04-10T04:58:40.920Z,100715.44
2019-04-10T04:59:18.349Z,100709.97
2019-04-10T04:59:54.850Z,100708.85
2019-04-10T05:00:32.013Z,100711.36
2019-04-10T05:01:08.487Z,100707.70
2019-04-10T05:01:44.921Z,100708.30
2019-04-10T05:02:21.941Z,100704.52
2019-04-10T05:02:58.412Z,100707.50
2019-04-10T05:03:35.416Z,100707.72
2019-04-10T05:04:11.802Z,100708.75
2019-04-10T05:04:49.289Z,100700.99
2019-04-10T05:05:25.868Z,100707.25
2019-04-10T05:06:02.347Z,100705.44
2019-04-10T05:06:39.569Z,100702.35
2019-04-10T05:07:16.879Z,100703.39
2019-04-10T05:07:59.460Z,100702.84
2019-04-10T05:08:32.373Z,100699.53
2019-04-10T05:09:09.948Z,100706.59
2019-04-10T05:09:46.360Z,100700.55
2019-04-10T05:10:22.948Z,100708.19
2019-04-10T05:11:00.122Z,100706.81
2019-04-10T05:11:36.708Z,100703.39
2019-04-10T05:12:13.449Z,100705.33
2019-04-10T05:12:50.072Z,100701.78
2019-04-10T05:13:26.689Z,100704.52
2019-04-10T05:14:03.387Z,100699.16
2019-04-10T05:14:40.020Z,100700.42
2019-04-10T05:15:16.686Z,100701.55
2019-04-10T05:15:53.387Z,100698.91
2019-04-10T05:16:30.744Z,100694.91
2019-04-10T05:17:08.048Z,100692.84
2019-04-10T05:17:44.973Z,100691.56
2019-04-10T05:18:21.592Z,100693.06
2019-04-10T05:18:58.099Z,100694.87
2019-04-10T05:19:34.627Z,100685.75
2019-04-10T05:20:11.241Z,100690.55
2019-04-10T05:20:50.456Z,100684.59
2019-04-10T05:21:25.928Z,100681.03
2019-04-10T05:22:02.411Z,100680.67
2019-04-10T05:22:39.591Z,100680.55
2019-04-10T05:23:16.186Z,100676.08
2019-04-10T05:23:53.363Z,100678.02
2019-04-10T05:24:30.095Z,100674.75
2019-04-10T05:25:06.950Z,100672.29
2019-04-10T05:25:43.611Z,100668.85
2019-04-10T05:26:20.751Z,100669.55
2019-04-10T05:26:57.418Z,100666.38
2019-04-10T05:27:34.973Z,100665.33
2019-04-10T05:28:11.720Z,100670.13
2019-04-10T05:28:48.617Z,100672.99
2019-04-10T05:29:25.149Z,100668.09
2019-04-10T05:30:02.338Z,100667.34
2019-04-10T05:30:38.927Z,100666.00
2019-04-10T05:31:15.466Z,100667.40
2019-04-10T05:31:52.873Z,100666.25
2019-04-10T05:32:30.764Z,100660.33
2019-04-10T05:33:08.207Z,100666.94
2019-04-10T05:33:44.962Z,100666.72
2019-04-10T05:34:22.001Z,100658.64
2019-04-10T05:34:58.773Z,100659.91
2019-04-10T05:35:36.305Z,100654.66
2019-04-10T05:36:17.742Z,100653.17
2019-04-10T05:36:57.210Z,100652.85
2019-04-10T05:37:33.865Z,100652.62
2019-04-10T05:38:10.451Z,100652.28
2019-04-10T05:38:48.137Z,100650.22
2019-04-10T05:39:24.838Z,100649.42
2019-04-10T05:40:01.599Z,100645.08
2019-04-10T05:40:38.188Z,100645.99
2019-04-10T05:41:15.461Z,100645.08
2019-04-10T05:41:52.262Z,100644.85
2019-04-10T05:42:29.030Z,100643.48
2019-04-10T05:43:05.956Z,100637.67
2019-04-10T05:43:42.646Z,100640.05
2019-04-10T05:44:20.106Z,100640.50
2019-04-10T05:44:56.805Z,100640.72
2019-04-10T05:45:33.892Z,100640.37
2019-04-10T05:46:10.577Z,100631.03
2019-04-10T05:46:47.570Z,100630.36
2019-04-10T05:47:24.262Z,100630.02
2019-04-10T05:48:01.258Z,100630.23
2019-04-10T05:48:37.788Z,100625.66
2019-04-10T05:49:14.954Z,100624.03
2019-04-10T05:49:51.482Z,100630.38
2019-04-10T05:50:27.930Z,100624.21
2019-04-10T05:51:07.316Z,100623.67
2019-04-10T05:51:43.600Z,100618.30
2019-04-10T05:52:20.351Z,100614.68
2019-04-10T05:52:56.671Z,100611.72
2019-04-10T05:53:32.816Z,100611.28
2019-04-10T05:54:09.114Z,100613.80
2019-04-10T05:54:45.443Z,100606.77
2019-04-10T05:55:22.612Z,100605.31
2019-04-10T05:55:58.988Z,100605.19
2019-04-10T05:56:36.357Z,100596.85
2019-04-10T05:57:12.667Z,100599.45
2019-04-10T05:57:49.080Z,100598.41
2019-04-10T05:58:25.824Z,100602.24
2019-04-10T05:59:03.027Z,100597.70
2019-04-10T05:59:40.253Z,100595.50
2019-04-10T06:00:17.340Z,100595.17
2019-04-10T06:00:53.581Z,100590.94
2019-04-10T06:01:35.496Z,100594.13
2019-04-10T06:02:08.106Z,100594.91
2019-04-10T06:02:44.907Z,100584.55
2019-04-10T06:03:21.433Z,100591.87
2019-04-10T06:03:57.904Z,100583.88
2019-04-10T06:04:34.379Z,100583.45
2019-04-10T06:05:10.896Z,100581.03
2019-04-10T06:05:47.325Z,100581.60
2019-04-10T06:06:24.250Z,100580.93
2019-04-10T06:07:01.049Z,100581.95
2019-04-10T06:07:37.644Z,100582.03
2019-04-10T06:08:14.059Z,100576.34
2019-04-10T06:08:51.140Z,100577.36
2019-04-10T06:09:27.353Z,100569.95
2019-04-10T06:10:06.985Z,100567.91
2019-04-10T06:10:41.653Z,100576.20
2019-04-10T06:11:17.691Z,100572.68
2019-04-10T06:11:53.935Z,100574.05
2019-04-10T06:12:30.601Z,100571.63
2019-04-10T06:13:07.040Z,100569.67
2019-04-10T06:13:43.188Z,100566.27
2019-04-10T06:14:19.265Z,100570.10
2019-04-10T06:14:56.628Z,100561.81
2019-04-10T06:15:33.037Z,100566.47
2019-04-10T06:16:09.747Z,100560.86
2019-04-10T06:16:46.335Z,100565.70
2019-04-10T06:17:22.766Z,100565.44
2019-04-10T06:17:59.065Z,100564.02
2019-04-10T06:18:35.630Z,100554.55
2019-04-10T06:19:12.531Z,100556.66
2019-04-10T06:19:49.396Z,100557.30
2019-04-10T06:20:26.612Z,100556.38
2019-04-10T06:21:03.140Z,100553.39
2019-04-10T06:21:39.860Z,100543.77
2019-04-10T06:22:16.828Z,100547.59
2019-04-10T06:22:54.573Z,100546.66
2019-04-10T06:23:31.724Z,100547.81
2019-04-10T06:24:08.523Z,100545.87
2019-04-10T06:24:45.296Z,100545.22
2019-04-10T06:25:24.668Z,100540.31
2019-04-10T06:26:00.555Z,100538.59
2019-04-10T06:26:37.542Z,100541.91
2019-04-10T06:27:14.273Z,100539.16
2019-04-10T06:27:50.726Z,100532.10
2019-04-10T06:28:27.924Z,100530.73
2019-04-10T06:29:05.094Z,100535.99
2019-04-10T06:29:41.379Z,100534.41
2019-04-10T06:30:17.736Z,100535.06
2019-04-10T06:30:54.515Z,100531.39
2019-04-10T06:31:30.966Z,100534.12
2019-04-10T06:32:07.444Z,100538.02
2019-04-10T06:32:53.856Z,100531.17
2019-04-10T06:33:36.684Z,100524.86
2019-04-10T06:34:15.986Z,100523.30
2019-04-10T06:34:51.637Z,100522.36
2019-04-10T06:35:28.393Z,100521.38
2019-04-10T06:36:05.037Z,100518.27
2019-04-10T06:36:41.748Z,100516.16
2019-04-10T06:37:18.431Z,100514.00
2019-04-10T06:37:55.038Z,100507.23
2019-04-10T06:38:32.089Z,100509.48
2019-04-10T06:39:09.505Z,100509.06
2019-04-10T06:39:46.506Z,100512.23
2019-04-10T06:40:25.906Z,100511.55
2019-04-10T06:41:02.154Z,100508.59
2019-04-10T06:41:39.095Z,100509.50
2019-04-10T06:42:16.845Z,100506.33
2019-04-10T06:42:54.944Z,100504.16
2019-04-10T06:43:32.833Z,100500.34
2019-04-10T06:44:09.875Z,100497.16
2019-04-10T06:44:46.506Z,100500.04
2019-04-10T06:45:24.017Z,100500.75
2019-04-10T06:46:00.693Z,100494.87
2019-04-10T06:46:38.884Z,100496.30
2019-04-10T06:47:15.519Z,100498.83
2019-04-10T06:47:52.969Z,100496.83
2019-04-10T06:48:32.115Z,100490.84
2019-04-10T06:49:09.319Z,100493.97
2019-04-10T06:49:46.366Z,100489.45
2019-04-10T06:50:23.171Z,100485.17
2019-04-10T06:50:59.888Z,100489.50
2019-04-10T06:51:37.512Z,100490.56
2019-04-10T06:52:14.488Z,100496.28
2019-04-10T06:52:51.349Z,100494.22
2019-04-10T06:53:28.910Z,100488.45
2019-04-10T06:54:10.777Z,100496.55
2019-04-10T06:54:53.980Z,100485.09
2019-04-10T06:55:30.785Z,100489.28
2019-04-10T06:56:07.369Z,100488.92
2019-04-10T06:56:45.354Z,100487.34
2019-04-10T06:57:22.949Z,100483.72
2019-04-10T06:58:00.769Z,100484.86
2019-04-10T06:58:38.153Z,100484.42
2019-04-10T06:59:14.792Z,100481.91
2019-04-10T06:59:52.336Z,100486.36
2019-04-10T07:00:30.556Z,100484.42
2019-04-10T07:01:08.380Z,100482.70
2019-04-10T07:01:51.223Z,100477.59
2019-04-10T07:02:27.924Z,100481.03
2019-04-10T07:03:01.661Z,100479.19